createdAt,value
2019-01-18T00:00:36.620Z,7.25
2019-01-18T00:03:08.462Z,5.58
2019-01-18T00:05:40.268Z,6.53
2019-01-18T00:08:12.070Z,8.65
2019-01-18T00:10:46.366Z,7.67
2019-01-18T00:13:18.171Z,6.30
2019-01-18T00:15:50.974Z,7.55
2019-01-18T00:18:24.254Z,6.62
2019-01-18T00:20:56.089Z,9.18
2019-01-18T00:23:29.021Z,6.70
2019-01-18T00:26:02.409Z,7.08
2019-01-18T00:28:35.852Z,6.70
2019-01-18T00:31:07.680Z,5.87
2019-01-18T00:33:41.057Z,7.58
2019-01-18T00:36:12.890Z,6.42
2019-01-18T00:38:44.708Z,5.67
2019-01-18T00:41:16.539Z,6.92
2019-01-18T00:43:50.439Z,6.12
2019-01-18T00:46:23.255Z,8.53
2019-01-18T00:48:57.126Z,7.50
2019-01-18T00:51:31.761Z,10.23
2019-01-18T00:54:03.641Z,7.35
2019-01-18T00:56:35.462Z,6.95
2019-01-18T00:59:07.337Z,9.23
2019-01-18T01:01:40.684Z,9.23
2019-01-18T01:04:12.512Z,6.47
2019-01-18T01:06:44.347Z,8.43
2019-01-18T01:09:17.525Z,7.58
2019-01-18T01:11:49.365Z,6.83
2019-01-18T01:14:22.796Z,7.75
2019-01-18T01:16:54.725Z,5.47
2019-01-18T01:19:26.536Z,9.50
2019-01-18T01:21:58.366Z,7.12
2019-01-18T01:24:31.306Z,7.72
2019-01-18T01:27:03.223Z,7.50
2019-01-18T01:29:43.186Z,9.95
2019-01-18T01:32:14.568Z,6.97
2019-01-18T01:34:46.387Z,9.28
2019-01-18T01:37:21.205Z,10.25
2019-01-18T01:39:54.743Z,10.50
2019-01-18T01:42:26.573Z,6.28
2019-01-18T01:44:59.857Z,9.50
2019-01-18T01:47:31.668Z,10.68
2019-01-18T01:50:03.545Z,10.20
2019-01-18T01:52:35.347Z,7.80
2019-01-18T01:55:08.242Z,11.75
2019-01-18T01:57:40.059Z,6.58
2019-01-18T02:00:23.997Z,7.85
2019-01-18T02:02:55.794Z,12.20
2019-01-18T02:05:27.639Z,7.92
2019-01-18T02:07:59.456Z,7.85
2019-01-18T02:10:31.266Z,8.53
2019-01-18T02:13:04.718Z,15.13
2019-01-18T02:15:36.553Z,12.10
2019-01-18T02:18:08.355Z,10.08
2019-01-18T02:20:40.196Z,9.93
2019-01-18T02:23:12.096Z,10.90
2019-01-18T02:25:43.931Z,10.63
2019-01-18T02:28:17.867Z,10.25
2019-01-18T02:30:49.694Z,8.00
2019-01-18T02:33:21.526Z,7.80
2019-01-18T02:35:53.342Z,10.32
2019-01-18T02:38:25.186Z,7.72
2019-01-18T02:40:56.981Z,8.90
2019-01-18T02:43:28.824Z,6.28
2019-01-18T02:46:00.649Z,12.37
2019-01-18T02:48:32.460Z,12.05
2019-01-18T02:51:04.265Z,6.87
2019-01-18T02:53:37.195Z,7.25
2019-01-18T02:56:09.019Z,8.55
2019-01-18T02:58:40.843Z,12.85
2019-01-18T03:01:12.654Z,11.65
2019-01-18T03:03:44.497Z,10.48
2019-01-18T03:06:16.307Z,9.53
2019-01-18T03:08:48.148Z,9.95
2019-01-18T03:11:19.957Z,8.73
2019-01-18T03:13:51.860Z,9.15
2019-01-18T03:16:23.691Z,11.65
2019-01-18T03:18:56.500Z,7.15
2019-01-18T03:21:28.309Z,7.90
2019-01-18T03:24:00.133Z,8.70
2019-01-18T03:26:31.977Z,8.10
2019-01-18T03:29:03.793Z,6.60
2019-01-18T03:31:35.654Z,8.43
2019-01-18T03:34:07.433Z,8.15
2019-01-18T03:36:41.040Z,9.10
2019-01-18T03:39:12.844Z,8.75
2019-01-18T03:41:44.673Z,9.73
2019-01-18T03:44:16.504Z,6.95
2019-01-18T03:46:48.320Z,9.25
2019-01-18T03:49:21.290Z,8.23
2019-01-18T03:51:53.100Z,7.03
2019-01-18T03:54:24.950Z,10.82
2019-01-18T03:56:56.739Z,6.80
2019-01-18T03:59:28.658Z,9.30
2019-01-18T04:02:00.451Z,9.80
2019-01-18T04:04:32.281Z,8.93
2019-01-18T04:07:04.077Z,11.45
2019-01-18T04:09:36.004Z,7.35
2019-01-18T04:12:07.819Z,10.98
2019-01-18T04:14:39.630Z,9.43
2019-01-18T04:17:14.174Z,8.40
2019-01-18T04:19:45.993Z,12.05
2019-01-18T04:22:17.795Z,10.70
2019-01-18T04:24:49.619Z,11.78
2019-01-18T04:27:21.424Z,10.80
2019-01-18T04:29:53.245Z,8.93
2019-01-18T04:32:25.046Z,7.40
2019-01-18T04:34:56.848Z,11.63
2019-01-18T04:37:28.681Z,6.20
2019-01-18T04:40:00.494Z,9.10
2019-01-18T04:42:32.306Z,11.75
2019-01-18T04:45:04.037Z,10.60
2019-01-18T04:47:35.868Z,11.50
2019-01-18T04:50:12.916Z,11.22
2019-01-18T04:52:45.024Z,8.10
2019-01-18T04:55:17.130Z,10.00
2019-01-18T04:57:48.958Z,10.20
2019-01-18T05:00:26.838Z,5.90
2019-01-18T05:02:58.656Z,10.58
2019-01-18T05:05:30.484Z,9.95
2019-01-18T05:08:02.304Z,6.25
2019-01-18T05:10:36.751Z,7.03
2019-01-18T05:13:07.657Z,11.05
2019-01-18T05:15:40.821Z,8.63
2019-01-18T05:18:12.586Z,11.60
2019-01-18T05:20:44.435Z,10.35
2019-01-18T05:23:16.263Z,11.05
2019-01-18T05:25:48.082Z,7.87
2019-01-18T05:28:19.898Z,7.67
2019-01-18T05:30:51.719Z,10.03
2019-01-18T05:33:23.521Z,10.68
2019-01-18T05:35:55.445Z,7.53
2019-01-18T05:38:27.244Z,9.68
2019-01-18T05:40:59.062Z,10.80
2019-01-18T05:43:30.862Z,8.03
2019-01-18T05:46:06.836Z,11.38
2019-01-18T05:48:41.402Z,12.73
2019-01-18T05:51:13.220Z,18.05
2019-01-18T05:53:45.092Z,8.45
2019-01-18T05:56:16.942Z,9.03
2019-01-18T05:58:48.768Z,9.98
2019-01-18T06:01:26.580Z,12.28
2019-01-18T06:06:40.033Z,10.78
2019-01-18T06:09:11.876Z,9.08
2019-01-18T06:11:46.707Z,13.10
2019-01-18T06:14:18.536Z,11.30
2019-01-18T06:16:50.388Z,11.93
2019-01-18T06:19:22.219Z,10.45
2019-01-18T06:21:54.068Z,9.30
2019-01-18T06:24:31.436Z,12.82
2019-01-18T06:27:01.811Z,11.22
2019-01-18T06:29:33.682Z,15.25
2019-01-18T06:32:07.864Z,13.83
2019-01-18T06:34:41.803Z,13.08
2019-01-18T06:37:16.042Z,12.58
2019-01-18T06:39:49.070Z,11.88
2019-01-18T06:42:26.818Z,10.20
2019-01-18T06:45:00.242Z,11.80
2019-01-18T06:47:32.137Z,9.65
2019-01-18T06:50:03.926Z,10.98
2019-01-18T06:52:35.757Z,12.28
2019-01-18T06:55:13.417Z,11.22
2019-01-18T06:57:45.369Z,10.38
2019-01-18T07:00:33.440Z,12.98
2019-01-18T07:03:04.358Z,13.35
2019-01-18T07:05:36.190Z,12.28
2019-01-18T07:08:08.026Z,12.82
2019-01-18T07:10:39.850Z,12.78
2019-01-18T07:13:11.666Z,16.70
2019-01-18T07:15:43.515Z,12.73
2019-01-18T07:18:17.093Z,13.00
2019-01-18T07:20:48.985Z,14.40
2019-01-18T07:23:20.817Z,14.15
2019-01-18T07:25:52.658Z,15.70
2019-01-18T07:28:24.473Z,13.25
2019-01-18T07:30:56.297Z,14.35
2019-01-18T07:33:29.140Z,11.35
2019-01-18T07:36:00.924Z,14.50
2019-01-18T07:38:36.334Z,12.65
2019-01-18T07:41:08.160Z,16.07
2019-01-18T07:43:39.987Z,15.30
2019-01-18T07:46:19.403Z,14.68
2019-01-18T07:48:51.325Z,14.03
2019-01-18T07:51:23.146Z,14.33
2019-01-18T07:53:56.094Z,19.15
2019-01-18T07:56:29.556Z,14.03
2019-01-18T07:59:04.423Z,11.75
2019-01-18T08:01:36.247Z,11.63
2019-01-18T08:04:10.978Z,13.32
2019-01-18T08:06:45.227Z,17.52
2019-01-18T08:09:18.691Z,12.73
2019-01-18T08:11:50.522Z,11.38
2019-01-18T08:14:22.368Z,10.85
2019-01-18T08:16:54.197Z,13.95
2019-01-18T08:19:26.031Z,13.80
2019-01-18T08:21:57.857Z,13.45
2019-01-18T08:24:29.673Z,14.58
2019-01-18T08:27:01.511Z,11.30
2019-01-18T08:29:33.316Z,13.30
2019-01-18T08:32:05.253Z,11.35
2019-01-18T08:34:37.186Z,12.00
2019-01-18T08:37:09.997Z,13.62
2019-01-18T08:39:41.826Z,16.85
2019-01-18T08:42:13.662Z,15.00
2019-01-18T08:44:45.457Z,11.63
2019-01-18T08:47:18.374Z,9.93
2019-01-18T08:49:50.236Z,11.38
2019-01-18T08:52:22.093Z,15.30
2019-01-18T08:54:59.695Z,20.85
2019-01-18T08:57:31.501Z,15.38
2019-01-18T09:00:03.924Z,12.50
2019-01-18T09:02:35.728Z,16.80
2019-01-18T09:05:13.006Z,11.78
2019-01-18T09:07:44.849Z,14.33
2019-01-18T09:10:19.001Z,18.92
2019-01-18T09:12:50.823Z,19.65
2019-01-18T09:15:22.867Z,16.95
2019-01-18T09:17:54.682Z,14.60
2019-01-18T09:20:28.391Z,13.10
2019-01-18T09:23:00.221Z,12.03
2019-01-18T09:25:32.050Z,23.12
2019-01-18T09:28:03.862Z,13.62
2019-01-18T09:30:36.295Z,13.62
2019-01-18T09:33:10.100Z,16.40
2019-01-18T09:35:42.868Z,17.80
2019-01-18T09:38:17.948Z,19.82
2019-01-18T09:40:50.037Z,15.88
2019-01-18T09:43:24.706Z,12.05
2019-01-18T09:45:56.584Z,15.72
2019-01-18T09:48:28.401Z,17.92
2019-01-18T09:51:00.224Z,18.30
2019-01-18T09:53:32.069Z,14.87
2019-01-18T09:56:04.489Z,16.45
2019-01-18T09:58:36.297Z,16.62
2019-01-18T10:01:08.220Z,13.95
2019-01-18T10:03:40.048Z,12.60
2019-01-18T10:06:11.851Z,14.28
2019-01-18T10:08:43.722Z,12.45
2019-01-18T10:11:15.562Z,19.67
2019-01-18T10:13:47.422Z,21.02
2019-01-18T10:16:19.259Z,20.45
2019-01-18T10:18:51.119Z,20.48
2019-01-18T10:21:23.010Z,15.25
2019-01-18T10:23:56.201Z,15.40
2019-01-18T10:26:30.135Z,16.95
2019-01-18T10:29:04.400Z,18.25
2019-01-18T10:31:36.235Z,14.73
2019-01-18T10:34:08.052Z,14.25
2019-01-18T10:36:40.938Z,15.15
2019-01-18T10:39:12.773Z,16.48
2019-01-18T10:41:44.629Z,15.25
2019-01-18T10:44:16.404Z,13.32
2019-01-18T10:46:48.243Z,14.58
2019-01-18T10:49:20.065Z,15.03
2019-01-18T10:51:51.891Z,9.98
2019-01-18T10:54:23.691Z,11.88
2019-01-18T10:56:55.544Z,10.72
2019-01-18T10:59:27.373Z,11.03
2019-01-18T11:02:03.415Z,10.05
2019-01-18T11:04:32.799Z,12.73
2019-01-18T11:07:04.717Z,11.80
2019-01-18T11:09:36.539Z,9.20
2019-01-18T11:12:09.457Z,11.22
2019-01-18T11:14:41.290Z,11.00
2019-01-18T11:17:12.903Z,11.27
2019-01-18T11:19:44.739Z,13.98
2019-01-18T11:22:16.693Z,12.10
2019-01-18T11:24:48.248Z,15.50
2019-01-18T11:27:20.077Z,12.00
2019-01-18T11:29:51.942Z,14.00
2019-01-18T11:32:23.496Z,12.80
2019-01-18T11:34:55.063Z,13.13
2019-01-18T11:37:28.490Z,16.60
2019-01-18T11:40:00.435Z,10.75
2019-01-18T11:42:32.236Z,11.10
2019-01-18T11:45:04.201Z,14.03
2019-01-18T11:47:36.009Z,12.45
2019-01-18T11:50:13.230Z,16.80
2019-01-18T11:52:45.021Z,14.73
2019-01-18T11:55:16.844Z,11.48
2019-01-18T11:57:48.886Z,25.88
2019-01-18T12:00:23.880Z,20.77
2019-01-18T12:02:55.714Z,25.12
2019-01-18T12:05:27.537Z,13.45
2019-01-18T12:07:59.418Z,12.60
2019-01-18T12:10:32.952Z,18.30
2019-01-18T12:13:05.095Z,15.10
2019-01-18T12:15:36.903Z,15.13
2019-01-18T12:18:08.766Z,10.78
2019-01-18T12:20:40.585Z,13.00
2019-01-18T12:23:12.400Z,8.50
2019-01-18T12:25:46.246Z,9.48
2019-01-18T12:28:18.094Z,9.58
2019-01-18T12:30:49.911Z,10.43
2019-01-18T12:33:21.818Z,10.50
2019-01-18T12:35:56.663Z,19.80
2019-01-18T12:38:28.510Z,13.32
2019-01-18T12:41:00.342Z,12.00
2019-01-18T12:43:32.183Z,15.18
2019-01-18T12:46:04.077Z,12.82
2019-01-18T12:48:35.931Z,17.73
2019-01-18T12:51:07.803Z,10.20
2019-01-18T12:53:39.798Z,15.00
2019-01-18T12:56:11.673Z,13.75
2019-01-18T12:58:43.532Z,15.15
2019-01-18T13:01:15.363Z,14.98
2019-01-18T13:03:47.214Z,16.95
2019-01-18T13:06:19.049Z,16.80
2019-01-18T13:08:50.907Z,16.02
2019-01-18T13:11:22.734Z,17.75
2019-01-18T13:13:54.589Z,10.93
2019-01-18T13:16:46.239Z,12.98
2019-01-18T13:19:27.599Z,11.63
2019-01-18T13:21:59.445Z,12.78
2019-01-18T13:24:31.308Z,15.55
2019-01-18T13:27:03.128Z,13.10
2019-01-18T13:29:34.995Z,12.68
2019-01-18T13:32:06.873Z,12.60
2019-01-18T13:34:38.734Z,16.35
2019-01-18T13:37:12.903Z,11.05
2019-01-18T13:39:44.458Z,11.53
2019-01-18T13:42:16.295Z,12.55
2019-01-18T13:44:48.122Z,11.75
2019-01-18T13:47:20.093Z,10.08
2019-01-18T13:49:52.517Z,12.90
2019-01-18T13:52:24.625Z,11.48
2019-01-18T13:54:57.134Z,8.90
2019-01-18T13:57:33.872Z,10.35
2019-01-18T14:00:07.765Z,13.20
2019-01-18T14:02:40.648Z,11.33
2019-01-18T14:05:12.998Z,10.73
2019-01-18T14:07:47.477Z,16.62
2019-01-18T14:10:26.140Z,10.23
2019-01-18T14:13:05.495Z,13.28
2019-01-18T14:15:37.062Z,10.57
2019-01-18T14:18:08.910Z,12.28
2019-01-18T14:20:41.921Z,8.93
2019-01-18T14:23:13.836Z,9.33
2019-01-18T14:25:45.735Z,9.88
2019-01-18T14:28:17.343Z,8.97
2019-01-18T14:30:48.881Z,12.60
2019-01-18T14:33:23.057Z,12.70
2019-01-18T14:35:54.918Z,8.25
2019-01-18T14:38:26.511Z,10.80
2019-01-18T14:41:00.854Z,7.80
2019-01-18T14:43:32.715Z,6.62
2019-01-18T14:46:04.543Z,10.50
2019-01-18T14:48:36.413Z,9.78
2019-01-18T14:51:08.239Z,9.40
2019-01-18T14:53:40.074Z,11.53
2019-01-18T14:56:13.705Z,9.53
2019-01-18T14:58:45.263Z,8.93
2019-01-18T15:01:16.805Z,11.93
2019-01-18T15:03:48.766Z,8.55
2019-01-18T15:06:20.642Z,8.25
2019-01-18T15:08:53.859Z,7.47
2019-01-18T15:11:25.702Z,10.13
2019-01-18T15:13:57.265Z,11.20
2019-01-18T15:16:29.113Z,12.10
2019-01-18T15:19:01.286Z,9.78
2019-01-18T15:21:32.892Z,13.47
2019-01-18T15:24:04.559Z,7.90
2019-01-18T15:26:36.427Z,9.00
2019-01-18T15:29:11.016Z,8.75
2019-01-18T15:31:42.879Z,9.15
2019-01-18T15:34:14.899Z,10.65
2019-01-18T15:36:46.559Z,11.53
2019-01-18T15:39:18.402Z,9.73
2019-01-18T15:41:49.947Z,10.40
2019-01-18T15:44:22.638Z,12.40
2019-01-18T15:46:54.473Z,8.03
2019-01-18T15:49:28.147Z,9.08
2019-01-18T15:52:00.086Z,15.35
2019-01-18T15:54:33.235Z,10.80
2019-01-18T15:57:08.066Z,15.10
2019-01-18T15:59:39.981Z,26.45
2019-01-18T16:02:11.842Z,23.87
2019-01-18T16:04:46.436Z,16.77
2019-01-18T16:07:18.296Z,17.27
2019-01-18T16:09:50.181Z,11.60
2019-01-18T16:12:23.643Z,10.00
2019-01-18T16:14:55.531Z,13.22
2019-01-18T16:17:32.357Z,10.88
2019-01-18T16:20:04.941Z,14.20
2019-01-18T16:22:36.781Z,9.70
2019-01-18T16:25:14.070Z,10.32
2019-01-18T16:27:45.898Z,28.27
2019-01-18T16:30:20.119Z,14.33
2019-01-18T16:32:52.299Z,10.35
2019-01-18T16:35:24.348Z,11.60
2019-01-18T16:37:56.223Z,14.80
2019-01-18T16:40:31.798Z,10.65
2019-01-18T16:43:24.996Z,13.05
2019-01-18T16:45:56.854Z,12.10
2019-01-18T16:48:28.682Z,9.25
2019-01-18T16:51:00.514Z,11.60
2019-01-18T16:53:34.909Z,11.10
2019-01-18T16:56:06.780Z,13.35
2019-01-18T16:58:38.856Z,6.42
2019-01-18T17:01:11.680Z,9.25
2019-01-18T17:03:43.643Z,14.58
2019-01-18T17:06:15.643Z,13.30
2019-01-18T17:08:51.670Z,11.63
2019-01-18T17:11:23.658Z,10.65
2019-01-18T17:13:55.599Z,9.10
2019-01-18T17:16:27.549Z,12.13
2019-01-18T17:18:59.657Z,12.10
2019-01-18T17:21:31.622Z,14.35
2019-01-18T17:24:03.497Z,14.85
2019-01-18T17:26:35.425Z,28.35
2019-01-18T17:29:09.098Z,19.00
2019-01-18T17:31:41.122Z,13.80
2019-01-18T17:34:13.065Z,12.23
2019-01-18T17:37:16.035Z,14.20
2019-01-18T17:40:19.742Z,18.27
2019-01-18T17:43:27.894Z,22.40
2019-01-18T17:46:38.337Z,30.08
2019-01-18T17:50:07.729Z,43.08
2019-01-18T17:53:38.640Z,16.70
2019-01-18T17:57:18.441Z,19.60
2019-01-18T18:00:33.797Z,18.57
2019-01-18T18:03:47.838Z,12.73
2019-01-18T18:07:23.282Z,32.15
2019-01-18T18:10:58.321Z,23.80
2019-01-18T18:13:48.494Z,32.30
2019-01-18T18:17:01.154Z,30.65
2019-01-18T18:21:00.181Z,51.15
2019-01-18T18:24:57.801Z,31.75
2019-01-18T18:28:08.120Z,28.80
2019-01-18T18:31:39.535Z,39.48
2019-01-18T18:35:00.924Z,29.80
2019-01-18T18:38:34.996Z,29.15
2019-01-18T18:42:02.526Z,23.27
2019-01-18T18:45:32.600Z,20.25
2019-01-18T18:48:27.647Z,19.12
2019-01-18T18:51:49.615Z,16.37
2019-01-18T18:55:30.811Z,14.33
2019-01-18T18:59:03.022Z,15.98
2019-01-18T19:02:08.056Z,23.77
2019-01-18T19:05:19.681Z,17.35
2019-01-18T19:09:08.525Z,22.10
2019-01-18T19:12:10.694Z,23.18
2019-01-18T19:15:47.433Z,24.20
2019-01-18T19:19:10.568Z,18.67
2019-01-18T19:22:28.366Z,25.45
2019-01-18T19:26:15.224Z,22.55
2019-01-18T19:29:57.790Z,26.00
2019-01-18T19:33:22.704Z,38.23
2019-01-18T19:37:09.699Z,35.05
2019-01-18T19:40:58.065Z,30.15
2019-01-18T19:44:57.069Z,30.05
2019-01-18T19:47:42.981Z,25.77
2019-01-18T19:51:30.019Z,29.18
2019-01-18T19:54:43.673Z,20.25
2019-01-18T19:57:50.967Z,31.48
2019-01-18T20:01:03.405Z,23.47
2019-01-18T20:04:47.363Z,37.13
2019-01-18T20:08:20.284Z,18.07
2019-01-18T20:12:00.448Z,11.03
2019-01-18T20:15:07.522Z,15.58
2019-01-18T20:18:37.823Z,16.35
2019-01-18T20:21:51.290Z,13.48
2019-01-18T20:25:17.805Z,15.25
2019-01-18T20:28:40.097Z,15.65
2019-01-18T20:31:56.258Z,17.45
2019-01-18T20:35:11.212Z,15.45
2019-01-18T20:38:00.117Z,16.30
2019-01-18T20:41:05.525Z,16.32
2019-01-18T20:44:28.343Z,21.12
2019-01-18T20:47:49.140Z,23.10
2019-01-18T20:51:30.467Z,20.05
2019-01-18T20:54:54.750Z,19.52
2019-01-18T20:58:45.134Z,26.15
2019-01-18T21:02:11.912Z,21.50
2019-01-18T21:05:45.218Z,25.95
2019-01-18T21:09:05.205Z,23.95
2019-01-18T21:12:37.955Z,22.45
2019-01-18T21:16:10.035Z,17.92
2019-01-18T21:20:06.702Z,13.68
2019-01-18T21:23:39.779Z,16.27
2019-01-18T21:26:50.739Z,16.45
2019-01-18T21:30:16.690Z,16.52
2019-01-18T21:33:40.702Z,18.48
2019-01-18T21:37:19.584Z,19.82
2019-01-18T21:40:20.960Z,23.47
2019-01-18T21:43:42.043Z,15.00
2019-01-18T21:47:41.377Z,13.88
2019-01-18T21:51:02.452Z,15.40
2019-01-18T21:54:22.753Z,15.90
2019-01-18T21:57:37.120Z,25.17
2019-01-18T22:01:38.603Z,17.60
2019-01-18T22:04:50.111Z,14.20
2019-01-18T22:08:29.792Z,16.05
2019-01-18T22:12:26.261Z,16.10
2019-01-18T22:16:02.720Z,14.68
2019-01-18T22:19:28.838Z,13.60
2019-01-18T22:22:40.423Z,14.50
2019-01-18T22:25:57.250Z,14.18
2019-01-18T22:29:15.454Z,17.48
2019-01-18T22:33:02.957Z,26.35
2019-01-18T22:36:18.782Z,19.07
2019-01-18T22:40:06.164Z,17.60
2019-01-18T22:43:47.406Z,14.47
2019-01-18T22:47:17.466Z,13.50
2019-01-18T22:50:43.621Z,16.37
2019-01-18T22:54:06.503Z,13.93
2019-01-18T22:57:30.966Z,14.55
2019-01-18T23:01:07.897Z,16.50
2019-01-18T23:04:25.560Z,15.25
2019-01-18T23:08:01.027Z,14.80
2019-01-18T23:11:09.228Z,16.37
2019-01-18T23:14:38.390Z,16.40
2019-01-18T23:17:51.363Z,15.83
2019-01-18T23:21:19.910Z,16.15
2019-01-18T23:24:47.987Z,18.90
2019-01-18T23:28:18.479Z,19.62
2019-01-18T23:31:15.942Z,21.97
2019-01-18T23:34:23.283Z,29.15
2019-01-18T23:37:39.753Z,21.95
2019-01-18T23:40:59.549Z,30.02
2019-01-18T23:44:29.646Z,28.07
2019-01-18T23:47:57.013Z,26.25
2019-01-18T23:51:00.334Z,18.80
2019-01-18T23:54:09.631Z,26.33
2019-01-18T23:57:43.681Z,24.95
